Nearby METAR Reports

 

KSJC - San Jose, California, USA
Distance from station: NE 14km
Updated: 22/02/2024 14:53
Partly cloudy
Partly cloudy
 Wind from NNW
Wind: NNW 19 km/h
Temperature: 19°C
Dew Point: 9°C
Humidity: 52%
Barometer: 1022.7 hPa
Clouds: Partly cloudy
Visibility: 16 km
Cloud details: Few Clouds 1067 m
Partly cloudy 1524 m
2024/02/22 22:53 KSJC 222253Z 33010KT 10SM FEW035 SCT050 19/09 A3020 RMK AO2 SLP227 T01940089
KNUQ - Moffett Nas/Mtn, California, USA
Distance from station: N 14km
Updated: 22/02/2024 14:55
Clear
Clear
 Wind from NNW
Wind: NNW 17 km/h
Temperature: 16°C
Dew Point: 9°C
Humidity: 63%
Barometer: 1023 hPa
Clouds: Clear
Visibility: 14 km
2024/02/22 22:55 KNUQ 222255Z AUTO 34009KT 9SM CLR 16/09 A3021 RMK AO2
 
KPAO - Palo Alto, California, USA
Distance from station: NNW 23km
Updated: 22/02/2024 14:47
Few Clouds
Few Clouds
 Wind from NW
Wind: NW 13 km/h
Temperature: 16°C
Dew Point: 9°C
Humidity: 63%
Barometer: 1023.7 hPa
Clouds: Few Clouds
Visibility: 16 km
Cloud details: Few Clouds 762 m
2024/02/22 22:47 KPAO 222247Z 32007KT 10SM FEW025 16/09 A3023
KRHV - San Jose/Reid, California, USA
Distance from station: ENE 19km
Updated: 22/02/2024 14:47
Partly cloudy
Partly cloudy
 Wind from W
Wind: W 7 km/h
Temperature: 18°C
Dew Point: 8°C
Humidity: 52%
Barometer: 1023.4 hPa
Clouds: Partly cloudy
Visibility: 16 km
Cloud details: Partly cloudy 1676 m
2024/02/22 22:47 KRHV 222247Z 26004KT 10SM SCT055 18/08 A3022
 
KOAK - Oakland, California, USA
Distance from station: NNW 50km
Updated: 22/02/2024 14:53
Partly cloudy
Partly cloudy
 Wind from WNW
Wind: WNW 13 km/h
Temperature: 17°C
Dew Point: 9°C
Humidity: 59%
Barometer: 1024 hPa
Clouds: Partly cloudy
Visibility: 16 km
Cloud details: Few Clouds 366 m
Few Clouds 762 m
Partly cloudy 1219 m
2024/02/22 22:53 KOAK 222253Z 29007KT 10SM FEW012 FEW025 SCT040 17/09 A3024 RMK AO2 SLP241 T01670094
KSQL - San Carlos Airpo, California, USA
Distance from station: NW 34km
Updated: 22/02/2024 14:47
Few Clouds
Few Clouds
 Wind from varies
Wind: varies 6 km/h
Temperature: 16°C
Dew Point: 10°C
Humidity: 68%
Barometer: 1024 hPa
Clouds: Few Clouds
Visibility: 16 km
Cloud details: Few Clouds 914 m
2024/02/22 22:47 KSQL 222247Z VRB03KT 10SM FEW030 16/10 A3024
 
KSFO - San Francisco, California, USA
Distance from station: NW 49km
Updated: 22/02/2024 14:56
Partly cloudy
Partly cloudy
 Wind from NE
Wind: NE 9 km/h
Temperature: 14°C
Dew Point: 11°C
Humidity: 82%
Barometer: 1023.7 hPa
Clouds: Partly cloudy
Visibility: 16 km
Cloud details: Few Clouds 701 m
Partly cloudy 1372 m
2024/02/22 22:56 KSFO 222256Z 04005KT 10SM FEW023 SCT045 14/11 A3023 RMK AO2 SLP235 T01440111
KE16 - San Martin, California, USA
Distance from station: ESE 43km
Updated: 22/02/2024 14:55
Clear
Clear
 Wind from calm
Wind: Calm
Temperature: 18°C
Dew Point: 6°C
Humidity: 46%
Barometer: 1023.7 hPa
Clouds: Clear
Visibility: 16 km
2024/02/22 22:55 KE16 222255Z AUTO 00000KT 10SM CLR 18/06 A3023 RMK AO2 PWINO PNO
 
KWVI - Watsonville, California, USA
Distance from station: SSE 44km
Updated: 22/02/2024 14:53
Clear
Clear
 Wind from W
Wind: W 13 km/h
Temperature: 17°C
Dew Point: 7°C
Humidity: 52%
Barometer: 1023.4 hPa
Clouds: Clear
Visibility: 16 km
2024/02/22 22:53 KWVI 222253Z AUTO 27007KT 10SM CLR 17/07 A3022 RMK AO2 SLP233 T01670072
KHAF - Half Moon Bay, California, USA
Distance from station: WNW 50km
Updated: 22/02/2024 14:55
Clear
Clear
 Wind from SSE
Wind: SSE 6 km/h
Temperature: 15°C
Dew Point: 9°C
Humidity: 68%
Barometer: 1023.7 hPa
Clouds: Clear
Visibility: 14 km
2024/02/22 22:55 KHAF 222255Z AUTO 16003KT 9SM CLR 15/09 A3023 RMK AO2
 
KHWD - Hayward, California, USA
Distance from station: N 44km
Updated: 22/02/2024 14:54
Clear
Clear
 Wind from W
Wind: W 15 km/h
Temperature: 17°C
Dew Point: 8°C
Humidity: 56%
Barometer: 1023.4 hPa
Clouds: Clear
Visibility: 16 km
2024/02/22 22:54 KHWD 222254Z 28008KT 10SM CLR 17/08 A3022 RMK AO2 SLP243 T01720083
KLVK - Livermore, California, USA
Distance from station: NNE 51km
Updated: 22/02/2024 14:53
Clear
Clear
 Wind from varies
Wind: varies 6 km/h
Temperature: 16°C
Dew Point: 8°C
Humidity: 59%
Barometer: 1023.4 hPa
Clouds: Clear
Visibility: 16 km
2024/02/22 22:53 KLVK 222253Z VRB03KT 10SM CLR 16/08 A3022 RMK AO2 SLP231 T01610083